sensor_id;sensor_type;location;lat;lon;timestamp;pressure;altitude;pressure_sealevel;temperature;humidity
30421;BME280;17218;54.070;10.012;2023-04-01T14:37:25;100510.44;;;4.27;100.00
30421;BME280;17218;54.070;10.012;2023-04-01T14:40:14;100515.63;;;4.31;100.00
30421;BME280;17218;54.070;10.012;2023-04-01T14:43:07;100514.97;;;4.44;100.00
30421;BME280;17218;54.070;10.012;2023-04-01T14:45:51;100507.22;;;4.41;100.00
30421;BME280;17218;54.070;10.012;2023-04-01T14:48:28;100509.91;;;4.49;100.00
30421;BME280;17218;54.070;10.012;2023-04-01T14:51:04;100510.69;;;4.45;100.00
30421;BME280;17218;54.070;10.012;2023-04-01T14:53:38;100517.53;;;4.46;100.00
30421;BME280;17218;54.070;10.012;2023-04-01T14:56:10;100521.88;;;4.48;100.00
30421;BME280;17218;54.070;10.012;2023-04-01T14:58:43;100516.97;;;4.65;100.00
30421;BME280;17218;54.070;10.012;2023-04-01T15:01:32;100524.63;;;4.62;100.00
30421;BME280;17218;54.070;10.012;2023-04-01T15:07:17;100524.53;;;4.55;100.00
30421;BME280;17218;54.070;10.012;2023-04-01T15:09:53;100538.16;;;4.52;100.00
30421;BME280;17218;54.070;10.012;2023-04-01T15:12:29;100539.06;;;4.56;100.00
30421;BME280;17218;54.070;10.012;2023-04-01T15:15:19;100548.59;;;4.64;100.00
30421;BME280;17218;54.070;10.012;2023-04-01T15:17:57;100550.19;;;4.55;100.00
30421;BME280;17218;54.070;10.012;2023-04-01T15:20:34;100553.56;;;4.53;100.00
30421;BME280;17218;54.070;10.012;2023-04-01T15:23:20;100562.13;;;4.52;100.00
30421;BME280;17218;54.070;10.012;2023-04-01T15:26:09;100566.41;;;4.53;100.00
30421;BME280;17218;54.070;10.012;2023-04-01T15:28:42;100578.44;;;4.58;100.00
30421;BME280;17218;54.070;10.012;2023-04-01T15:31:18;100574.84;;;4.46;100.00
30421;BME280;17218;54.070;10.012;2023-04-01T15:33:57;100578.19;;;4.42;100.00
30421;BME280;17218;54.070;10.012;2023-04-01T15:39:13;100576.28;;;4.28;100.00
30421;BME280;17218;54.070;10.012;2023-04-01T15:42:04;100597.63;;;4.27;100.00
30421;BME280;17218;54.070;10.012;2023-04-01T15:44:45;100599.34;;;4.27;100.00
30421;BME280;17218;54.070;10.012;2023-04-01T15:47:42;100605.41;;;4.31;100.00
30421;BME280;17218;54.070;10.012;2023-04-01T15:53:21;100605.31;;;4.26;100.00
30421;BME280;17218;54.070;10.012;2023-04-01T15:55:54;100618.09;;;4.23;100.00
30421;BME280;17218;54.070;10.012;2023-04-01T15:58:37;100616.28;;;4.18;100.00
30421;BME280;17218;54.070;10.012;2023-04-01T16:01:18;100621.69;;;4.33;100.00
30421;BME280;17218;54.070;10.012;2023-04-01T16:03:52;100626.66;;;4.25;100.00
30421;BME280;17218;54.070;10.012;2023-04-01T16:06:48;100623.38;;;4.32;100.00
30421;BME280;17218;54.070;10.012;2023-04-01T16:09:35;100639.53;;;4.28;100.00
30421;BME280;17218;54.070;10.012;2023-04-01T16:12:12;100649.97;;;4.39;100.00
30421;BME280;17218;54.070;10.012;2023-04-01T16:14:52;100640.28;;;4.22;100.00
30421;BME280;17218;54.070;10.012;2023-04-01T16:17:31;100651.53;;;4.29;100.00
30421;BME280;17218;54.070;10.012;2023-04-01T16:20:14;100649.84;;;4.31;100.00
30421;BME280;17218;54.070;10.012;2023-04-01T16:22:49;100654.97;;;4.31;100.00
30421;BME280;17218;54.070;10.012;2023-04-01T16:25:33;100666.63;;;4.12;100.00
30421;BME280;17218;54.070;10.012;2023-04-01T16:28:15;100647.56;;;3.99;100.00
30421;BME280;17218;54.070;10.012;2023-04-01T16:30:48;100680.19;;;4.06;100.00
30421;BME280;17218;54.070;10.012;2023-04-01T16:33:23;100671.38;;;3.91;100.00
30421;BME280;17218;54.070;10.012;2023-04-01T16:35:58;100676.50;;;3.91;100.00
30421;BME280;17218;54.070;10.012;2023-04-01T16:38:33;100682.31;;;3.83;100.00
30421;BME280;17218;54.070;10.012;2023-04-01T16:41:11;100696.00;;;3.85;100.00
30421;BME280;17218;54.070;10.012;2023-04-01T16:43:42;100691.66;;;3.80;100.00
30421;BME280;17218;54.070;10.012;2023-04-01T16:46:34;100710.63;;;3.90;100.00
30421;BME280;17218;54.070;10.012;2023-04-01T16:49:24;100704.72;;;3.93;100.00
30421;BME280;17218;54.070;10.012;2023-04-01T16:52:04;100711.50;;;3.91;100.00
30421;BME280;17218;54.070;10.012;2023-04-01T16:54:43;100723.56;;;3.95;100.00
30421;BME280;17218;54.070;10.012;2023-04-01T16:57:18;100729.19;;;3.78;100.00
30421;BME280;17218;54.070;10.012;2023-04-01T16:59:54;100727.97;;;3.61;100.00
30421;BME280;17218;54.070;10.012;2023-04-01T17:02:26;100742.56;;;3.65;100.00
30421;BME280;17218;54.070;10.012;2023-04-01T17:04:59;100746.69;;;3.56;100.00
30421;BME280;17218;54.070;10.012;2023-04-01T17:07:35;100744.41;;;3.70;100.00
30421;BME280;17218;54.070;10.012;2023-04-01T17:10:34;100755.91;;;3.90;100.00
30421;BME280;17218;54.070;10.012;2023-04-01T17:13:18;100759.31;;;3.89;100.00
30421;BME280;17218;54.070;10.012;2023-04-01T17:16:01;100761.31;;;3.62;100.00
30421;BME280;17218;54.070;10.012;2023-04-01T17:18:38;100778.19;;;3.52;100.00
30421;BME280;17218;54.070;10.012;2023-04-01T17:21:13;100767.91;;;3.51;100.00
30421;BME280;17218;54.070;10.012;2023-04-01T17:23:45;100782.38;;;3.49;100.00
30421;BME280;17218;54.070;10.012;2023-04-01T17:26:22;100795.13;;;3.45;100.00
30421;BME280;17218;54.070;10.012;2023-04-01T17:28:58;100802.63;;;3.38;100.00
30421;BME280;17218;54.070;10.012;2023-04-01T17:31:37;100791.78;;;3.50;100.00
30421;BME280;17218;54.070;10.012;2023-04-01T17:34:39;100815.66;;;3.49;100.00
30421;BME280;17218;54.070;10.012;2023-04-01T17:37:23;100805.25;;;3.42;100.00
30421;BME280;17218;54.070;10.012;2023-04-01T17:40:07;100821.66;;;3.49;100.00
30421;BME280;17218;54.070;10.012;2023-04-01T17:42:46;100827.22;;;3.31;100.00
30421;BME280;17218;54.070;10.012;2023-04-01T17:45:21;100825.34;;;3.24;100.00
30421;BME280;17218;54.070;10.012;2023-04-01T17:47:59;100842.34;;;3.21;100.00
30421;BME280;17218;54.070;10.012;2023-04-01T17:50:42;100834.41;;;3.10;100.00
30421;BME280;17218;54.070;10.012;2023-04-01T18:55:33;100973.03;;;2.06;100.00
30421;BME280;17218;54.070;10.012;2023-04-01T18:58:17;100976.97;;;1.96;100.00
30421;BME280;17218;54.070;10.012;2023-04-01T19:00:49;100984.75;;;1.99;100.00
30421;BME280;17218;54.070;10.012;2023-04-01T19:03:22;100994.19;;;2.02;100.00
30421;BME280;17218;54.070;10.012;2023-04-01T19:05:52;100995.63;;;1.94;100.00
30421;BME280;17218;54.070;10.012;2023-04-01T19:08:27;101004.88;;;1.90;100.00
30421;BME280;17218;54.070;10.012;2023-04-01T19:11:06;101008.91;;;1.83;100.00
30421;BME280;17218;54.070;10.012;2023-04-01T19:13:40;101020.78;;;1.81;100.00
30421;BME280;17218;54.070;10.012;2023-04-01T19:16:18;101017.19;;;1.76;100.00
30421;BME280;17218;54.070;10.012;2023-04-01T19:18:58;101029.06;;;1.74;100.00
30421;BME280;17218;54.070;10.012;2023-04-01T19:21:29;101030.84;;;1.76;100.00
30421;BME280;17218;54.070;10.012;2023-04-01T19:24:17;101035.91;;;1.75;100.00
30421;BME280;17218;54.070;10.012;2023-04-01T19:26:56;101032.31;;;1.70;100.00
30421;BME280;17218;54.070;10.012;2023-04-01T19:29:37;101053.38;;;1.62;100.00
30421;BME280;17218;54.070;10.012;2023-04-01T19:32:16;101048.31;;;1.64;100.00
30421;BME280;17218;54.070;10.012;2023-04-01T19:34:56;101038.19;;;1.67;100.00
30421;BME280;17218;54.070;10.012;2023-04-01T19:37:32;101046.03;;;1.72;100.00
30421;BME280;17218;54.070;10.012;2023-04-01T19:40:17;101049.19;;;1.64;100.00
30421;BME280;17218;54.070;10.012;2023-04-01T19:42:52;101062.66;;;1.60;100.00
30421;BME280;17218;54.070;10.012;2023-04-01T19:45:33;101063.44;;;1.59;100.00
30421;BME280;17218;54.070;10.012;2023-04-01T19:48:15;101077.09;;;1.60;100.00
30421;BME280;17218;54.070;10.012;2023-04-01T19:50:51;101074.81;;;1.67;100.00
30421;BME280;17218;54.070;10.012;2023-04-01T19:53:23;101076.50;;;1.67;100.00
30421;BME280;17218;54.070;10.012;2023-04-01T19:55:59;101073.00;;;1.65;100.00
30421;BME280;17218;54.070;10.012;2023-04-01T19:58:33;101079.09;;;1.69;100.00
30421;BME280;17218;54.070;10.012;2023-04-01T20:01:04;101085.41;;;1.54;100.00
30421;BME280;17218;54.070;10.012;2023-04-01T20:03:36;101099.06;;;1.54;100.00
30421;BME280;17218;54.070;10.012;2023-04-01T20:06:21;101108.72;;;1.63;100.00
30421;BME280;17218;54.070;10.012;2023-04-01T20:08:57;101100.13;;;1.61;100.00
30421;BME280;17218;54.070;10.012;2023-04-01T20:11:34;101115.41;;;1.60;100.00
30421;BME280;17218;54.070;10.012;2023-04-01T20:14:14;101110.78;;;1.49;100.00
30421;BME280;17218;54.070;10.012;2023-04-01T20:17:07;101120.66;;;1.40;100.00
30421;BME280;17218;54.070;10.012;2023-04-01T20:19:41;101133.59;;;1.45;100.00
30421;BME280;17218;54.070;10.012;2023-04-01T20:22:23;101140.78;;;1.55;100.00
30421;BME280;17218;54.070;10.012;2023-04-01T20:24:58;101145.84;;;1.53;100.00
30421;BME280;17218;54.070;10.012;2023-04-01T20:27:27;101148.84;;;1.43;100.00
30421;BME280;17218;54.070;10.012;2023-04-01T20:30:23;101157.28;;;1.40;100.00
30421;BME280;17218;54.070;10.012;2023-04-01T20:33:06;101165.06;;;1.43;100.00
30421;BME280;17218;54.070;10.012;2023-04-01T20:35:42;101163.44;;;1.46;100.00
30421;BME280;17218;54.070;10.012;2023-04-01T20:38:37;101164.94;;;1.40;100.00
30421;BME280;17218;54.070;10.012;2023-04-01T20:41:10;101173.41;;;1.39;100.00
30421;BME280;17218;54.070;10.012;2023-04-01T20:43:48;101178.34;;;1.35;100.00
30421;BME280;17218;54.070;10.012;2023-04-01T20:46:22;101176.84;;;1.40;100.00
30421;BME280;17218;54.070;10.012;2023-04-01T20:49:07;101184.50;;;1.40;100.00
30421;BME280;17218;54.070;10.012;2023-04-01T20:51:46;101187.84;;;1.39;100.00
30421;BME280;17218;54.070;10.012;2023-04-01T20:54:30;101197.44;;;1.45;100.00
30421;BME280;17218;54.070;10.012;2023-04-01T20:57:09;101195.69;;;1.43;100.00
30421;BME280;17218;54.070;10.012;2023-04-01T20:59:50;101202.19;;;1.35;100.00
30421;BME280;17218;54.070;10.012;2023-04-01T21:02:35;101198.72;;;1.33;100.00
30421;BME280;17218;54.070;10.012;2023-04-01T21:05:26;101205.59;;;1.36;100.00
30421;BME280;17218;54.070;10.012;2023-04-01T21:08:01;101202.00;;;1.30;100.00
30421;BME280;17218;54.070;10.012;2023-04-01T21:10:39;101213.31;;;1.37;100.00
30421;BME280;17218;54.070;10.012;2023-04-01T21:13:17;101221.34;;;1.24;100.00
30421;BME280;17218;54.070;10.012;2023-04-01T21:15:57;101222.34;;;1.27;100.00
30421;BME280;17218;54.070;10.012;2023-04-01T21:18:46;101208.75;;;1.28;100.00
30421;BME280;17218;54.070;10.012;2023-04-01T21:21:26;101235.44;;;1.37;100.00
30421;BME280;17218;54.070;10.012;2023-04-01T21:24:29;101238.00;;;1.37;100.00
30421;BME280;17218;54.070;10.012;2023-04-01T21:27:05;101233.69;;;1.36;100.00
30421;BME280;17218;54.070;10.012;2023-04-01T21:29:42;101240.94;;;1.25;100.00
30421;BME280;17218;54.070;10.012;2023-04-01T21:32:23;101241.13;;;1.29;100.00
30421;BME280;17218;54.070;10.012;2023-04-01T21:35:00;101247.72;;;1.24;100.00
30421;BME280;17218;54.070;10.012;2023-04-01T21:37:42;101251.81;;;1.21;100.00
30421;BME280;17218;54.070;10.012;2023-04-01T21:40:40;101251.16;;;1.25;100.00
30421;BME280;17218;54.070;10.012;2023-04-01T21:43:21;101266.19;;;1.18;100.00
30421;BME280;17218;54.070;10.012;2023-04-01T21:49:22;101271.31;;;1.18;100.00
30421;BME280;17218;54.070;10.012;2023-04-01T21:55:04;101285.94;;;1.23;100.00
30421;BME280;17218;54.070;10.012;2023-04-01T22:00:42;101283.22;;;1.18;100.00
30421;BME280;17218;54.070;10.012;2023-04-01T22:03:41;101289.75;;;1.11;100.00
30421;BME280;17218;54.070;10.012;2023-04-01T22:06:22;101287.94;;;1.09;100.00
30421;BME280;17218;54.070;10.012;2023-04-01T22:09:01;101301.31;;;1.03;100.00
30421;BME280;17218;54.070;10.012;2023-04-01T22:11:40;101305.22;;;0.94;100.00
30421;BME280;17218;54.070;10.012;2023-04-01T22:14:13;101316.31;;;0.95;100.00
30421;BME280;17218;54.070;10.012;2023-04-01T22:16:47;101307.94;;;0.98;100.00
30421;BME280;17218;54.070;10.012;2023-04-01T22:19:20;101309.72;;;1.00;100.00
30421;BME280;17218;54.070;10.012;2023-04-01T22:21:56;101314.03;;;1.01;100.00
30421;BME280;17218;54.070;10.012;2023-04-01T22:24:37;101323.34;;;1.01;100.00
30421;BME280;17218;54.070;10.012;2023-04-01T22:27:11;101330.94;;;0.99;100.00
30421;BME280;17218;54.070;10.012;2023-04-01T22:29:49;101326.84;;;1.03;100.00
30421;BME280;17218;54.070;10.012;2023-04-01T22:32:22;101325.78;;;0.98;100.00
30421;BME280;17218;54.070;10.012;2023-04-01T22:34:56;101330.69;;;0.93;100.00
30421;BME280;17218;54.070;10.012;2023-04-01T22:37:32;101344.13;;;0.89;100.00
30421;BME280;17218;54.070;10.012;2023-04-01T22:40:12;101340.66;;;0.87;100.00
30421;BME280;17218;54.070;10.012;2023-04-01T22:42:44;101342.38;;;0.88;100.00
30421;BME280;17218;54.070;10.012;2023-04-01T22:45:26;101346.47;;;0.84;100.00
30421;BME280;17218;54.070;10.012;2023-04-01T22:48:02;101357.69;;;0.88;100.00
30421;BME280;17218;54.070;10.012;2023-04-01T22:50:36;101362.66;;;0.85;100.00
30421;BME280;17218;54.070;10.012;2023-04-01T22:53:12;101366.94;;;0.86;100.00
30421;BME280;17218;54.070;10.012;2023-04-01T22:55:46;101379.75;;;0.87;100.00
30421;BME280;17218;54.070;10.012;2023-04-01T22:58:16;101384.97;;;0.89;100.00
30421;BME280;17218;54.070;10.012;2023-04-01T23:00:47;101390.25;;;0.93;100.00
30421;BME280;17218;54.070;10.012;2023-04-01T23:03:19;101385.75;;;0.88;100.00
30421;BME280;17218;54.070;10.012;2023-04-01T23:05:50;101393.22;;;0.83;100.00
30421;BME280;17218;54.070;10.012;2023-04-01T23:08:53;101401.94;;;0.88;100.00
30421;BME280;17218;54.070;10.012;2023-04-01T23:11:28;101395.06;;;0.87;100.00
30421;BME280;17218;54.070;10.012;2023-04-01T23:14:07;101408.16;;;0.95;100.00
30421;BME280;17218;54.070;10.012;2023-04-01T23:16:47;101404.72;;;0.94;100.00
30421;BME280;17218;54.070;10.012;2023-04-01T23:19:22;101403.19;;;0.98;100.00
30421;BME280;17218;54.070;10.012;2023-04-01T23:21:54;101408.91;;;0.92;100.00
30421;BME280;17218;54.070;10.012;2023-04-01T23:24:30;101413.03;;;0.89;100.00
30421;BME280;17218;54.070;10.012;2023-04-01T23:27:04;101412.19;;;0.90;100.00
30421;BME280;17218;54.070;10.012;2023-04-01T23:29:34;101433.34;;;0.87;100.00
30421;BME280;17218;54.070;10.012;2023-04-01T23:32:02;101423.88;;;0.85;100.00
30421;BME280;17218;54.070;10.012;2023-04-01T23:34:30;101435.09;;;0.88;100.00
30421;BME280;17218;54.070;10.012;2023-04-01T23:37:00;101435.03;;;0.87;100.00
30421;BME280;17218;54.070;10.012;2023-04-01T23:39:31;101430.72;;;0.86;100.00
30421;BME280;17218;54.070;10.012;2023-04-01T23:42:02;101442.69;;;0.87;100.00
30421;BME280;17218;54.070;10.012;2023-04-01T23:44:31;101440.19;;;0.88;100.00
30421;BME280;17218;54.070;10.012;2023-04-01T23:46:59;101446.91;;;0.86;100.00
30421;BME280;17218;54.070;10.012;2023-04-01T23:49:31;101449.59;;;0.89;100.00
30421;BME280;17218;54.070;10.012;2023-04-01T23:52:03;101458.06;;;0.88;100.00
30421;BME280;17218;54.070;10.012;2023-04-01T23:54:33;101462.34;;;0.89;100.00
30421;BME280;17218;54.070;10.012;2023-04-01T23:57:09;101466.38;;;0.84;100.00
30421;BME280;17218;54.070;10.012;2023-04-01T23:59:37;101473.16;;;0.83;100.00
